sensor_id;sensor_type;location;lat;lon;timestamp;P1;durP1;ratioP1;P2;durP2;ratioP2
7289;SDS011;63176;52.678;13.250;2023-08-31T00:01:46;4.93;;;3.20;;
7289;SDS011;63176;52.678;13.250;2023-08-31T00:04:13;3.17;;;2.97;;
7289;SDS011;63176;52.678;13.250;2023-08-31T00:06:42;3.83;;;3.43;;
7289;SDS011;63176;52.678;13.250;2023-08-31T00:09:10;5.60;;;3.50;;
7289;SDS011;63176;52.678;13.250;2023-08-31T00:11:36;4.47;;;4.07;;
7289;SDS011;63176;52.678;13.250;2023-08-31T00:14:02;3.20;;;2.90;;
7289;SDS011;63176;52.678;13.250;2023-08-31T00:16:28;3.87;;;3.47;;
7289;SDS011;63176;52.678;13.250;2023-08-31T00:18:55;6.07;;;3.33;;
7289;SDS011;63176;52.678;13.250;2023-08-31T00:21:22;5.00;;;3.43;;
7289;SDS011;63176;52.678;13.250;2023-08-31T00:23:48;4.90;;;3.77;;
7289;SDS011;63176;52.678;13.250;2023-08-31T00:26:14;4.50;;;4.10;;
7289;SDS011;63176;52.678;13.250;2023-08-31T00:28:40;5.47;;;3.80;;
7289;SDS011;63176;52.678;13.250;2023-08-31T00:31:10;3.40;;;3.10;;
7289;SDS011;63176;52.678;13.250;2023-08-31T00:33:39;3.80;;;3.33;;
7289;SDS011;63176;52.678;13.250;2023-08-31T00:36:05;3.60;;;3.30;;
7289;SDS011;63176;52.678;13.250;2023-08-31T00:38:31;3.60;;;3.30;;
7289;SDS011;63176;52.678;13.250;2023-08-31T00:40:57;4.13;;;3.73;;
7289;SDS011;63176;52.678;13.250;2023-08-31T00:43:22;4.63;;;4.03;;
7289;SDS011;63176;52.678;13.250;2023-08-31T00:45:49;4.43;;;4.03;;
7289;SDS011;63176;52.678;13.250;2023-08-31T00:48:19;4.60;;;3.77;;
7289;SDS011;63176;52.678;13.250;2023-08-31T00:50:48;3.83;;;3.50;;
7289;SDS011;63176;52.678;13.250;2023-08-31T00:53:14;4.17;;;3.77;;
7289;SDS011;63176;52.678;13.250;2023-08-31T00:55:41;4.87;;;4.47;;
7289;SDS011;63176;52.678;13.250;2023-08-31T00:58:09;5.00;;;4.50;;
7289;SDS011;63176;52.678;13.250;2023-08-31T01:00:53;5.07;;;4.50;;
7289;SDS011;63176;52.678;13.250;2023-08-31T01:09:24;7.37;;;4.93;;
7289;SDS011;63176;52.678;13.250;2023-08-31T01:12:11;6.80;;;5.30;;
7289;SDS011;63176;52.678;13.250;2023-08-31T01:14:47;8.13;;;4.90;;
7289;SDS011;63176;52.678;13.250;2023-08-31T01:17:19;5.30;;;4.73;;
7289;SDS011;63176;52.678;13.250;2023-08-31T01:19:54;6.10;;;5.50;;
7289;SDS011;63176;52.678;13.250;2023-08-31T01:25:08;5.47;;;4.97;;
7289;SDS011;63176;52.678;13.250;2023-08-31T01:27:35;8.47;;;6.00;;
7289;SDS011;63176;52.678;13.250;2023-08-31T01:30:02;6.27;;;5.50;;
7289;SDS011;63176;52.678;13.250;2023-08-31T01:32:29;6.27;;;5.67;;
7289;SDS011;63176;52.678;13.250;2023-08-31T01:34:55;5.57;;;5.07;;
7289;SDS011;63176;52.678;13.250;2023-08-31T01:37:31;5.90;;;5.30;;
7289;SDS011;63176;52.678;13.250;2023-08-31T01:40:09;8.30;;;5.80;;
7289;SDS011;63176;52.678;13.250;2023-08-31T01:42:41;6.60;;;5.90;;
7289;SDS011;63176;52.678;13.250;2023-08-31T01:45:08;8.57;;;6.23;;
7289;SDS011;63176;52.678;13.250;2023-08-31T01:47:36;6.40;;;5.77;;
7289;SDS011;63176;52.678;13.250;2023-08-31T01:50:01;8.90;;;5.90;;
7289;SDS011;63176;52.678;13.250;2023-08-31T01:52:28;6.90;;;5.20;;
7289;SDS011;63176;52.678;13.250;2023-08-31T01:54:55;6.97;;;6.27;;
7289;SDS011;63176;52.678;13.250;2023-08-31T01:57:21;5.73;;;5.23;;
7289;SDS011;63176;52.678;13.250;2023-08-31T01:59:46;5.90;;;5.10;;
7289;SDS011;63176;52.678;13.250;2023-08-31T02:02:12;5.77;;;4.90;;
7289;SDS011;63176;52.678;13.250;2023-08-31T02:04:39;7.00;;;4.97;;
7289;SDS011;63176;52.678;13.250;2023-08-31T02:07:05;5.77;;;4.73;;
7289;SDS011;63176;52.678;13.250;2023-08-31T02:09:30;5.33;;;4.80;;
7289;SDS011;63176;52.678;13.250;2023-08-31T02:11:56;5.37;;;4.73;;
7289;SDS011;63176;52.678;13.250;2023-08-31T02:14:22;6.73;;;4.63;;
7289;SDS011;63176;52.678;13.250;2023-08-31T02:16:48;4.33;;;3.93;;
7289;SDS011;63176;52.678;13.250;2023-08-31T02:19:13;5.33;;;4.70;;
7289;SDS011;63176;52.678;13.250;2023-08-31T02:21:39;4.93;;;4.30;;
7289;SDS011;63176;52.678;13.250;2023-08-31T02:24:05;5.27;;;4.43;;
7289;SDS011;63176;52.678;13.250;2023-08-31T02:26:31;4.07;;;3.63;;
7289;SDS011;63176;52.678;13.250;2023-08-31T02:28:57;4.20;;;3.80;;
7289;SDS011;63176;52.678;13.250;2023-08-31T02:31:22;4.33;;;3.70;;
7289;SDS011;63176;52.678;13.250;2023-08-31T02:33:48;3.73;;;3.30;;
7289;SDS011;63176;52.678;13.250;2023-08-31T02:36:14;4.33;;;3.40;;
7289;SDS011;63176;52.678;13.250;2023-08-31T02:38:40;3.70;;;3.13;;
7289;SDS011;63176;52.678;13.250;2023-08-31T02:41:06;3.40;;;2.57;;
7289;SDS011;63176;52.678;13.250;2023-08-31T02:43:31;3.03;;;2.73;;
7289;SDS011;63176;52.678;13.250;2023-08-31T02:46:00;5.03;;;2.43;;
7289;SDS011;63176;52.678;13.250;2023-08-31T02:48:27;2.50;;;2.30;;
7289;SDS011;63176;52.678;13.250;2023-08-31T02:50:53;2.73;;;2.53;;
7289;SDS011;63176;52.678;13.250;2023-08-31T02:53:19;2.30;;;2.10;;
7289;SDS011;63176;52.678;13.250;2023-08-31T02:55:44;5.63;;;2.73;;
7289;SDS011;63176;52.678;13.250;2023-08-31T02:58:10;2.90;;;2.40;;
7289;SDS011;63176;52.678;13.250;2023-08-31T03:00:36;3.87;;;2.40;;
7289;SDS011;63176;52.678;13.250;2023-08-31T03:03:04;2.17;;;2.07;;
7289;SDS011;63176;52.678;13.250;2023-08-31T03:05:30;2.27;;;2.07;;
7289;SDS011;63176;52.678;13.250;2023-08-31T03:07:55;2.70;;;2.50;;
7289;SDS011;63176;52.678;13.250;2023-08-31T03:10:22;2.77;;;2.57;;
7289;SDS011;63176;52.678;13.250;2023-08-31T03:12:47;3.43;;;2.47;;
7289;SDS011;63176;52.678;13.250;2023-08-31T03:15:13;2.83;;;2.37;;
7289;SDS011;63176;52.678;13.250;2023-08-31T03:17:39;2.30;;;2.10;;
7289;SDS011;63176;52.678;13.250;2023-08-31T03:20:04;3.43;;;3.00;;
7289;SDS011;63176;52.678;13.250;2023-08-31T03:22:31;3.37;;;3.07;;
7289;SDS011;63176;52.678;13.250;2023-08-31T03:24:57;3.90;;;2.80;;
7289;SDS011;63176;52.678;13.250;2023-08-31T03:27:24;5.17;;;2.90;;
7289;SDS011;63176;52.678;13.250;2023-08-31T03:29:50;3.20;;;2.90;;
7289;SDS011;63176;52.678;13.250;2023-08-31T03:32:15;2.73;;;2.53;;
7289;SDS011;63176;52.678;13.250;2023-08-31T03:34:41;3.37;;;2.93;;
7289;SDS011;63176;52.678;13.250;2023-08-31T03:37:06;3.40;;;3.10;;
7289;SDS011;63176;52.678;13.250;2023-08-31T03:39:32;3.00;;;2.67;;
7289;SDS011;63176;52.678;13.250;2023-08-31T03:41:58;2.90;;;2.60;;
7289;SDS011;63176;52.678;13.250;2023-08-31T03:44:24;3.57;;;2.13;;
7289;SDS011;63176;52.678;13.250;2023-08-31T03:46:49;2.60;;;2.37;;
7289;SDS011;63176;52.678;13.250;2023-08-31T03:49:15;2.60;;;2.30;;
7289;SDS011;63176;52.678;13.250;2023-08-31T03:51:40;2.87;;;2.60;;
7289;SDS011;63176;52.678;13.250;2023-08-31T03:54:06;2.63;;;2.43;;
7289;SDS011;63176;52.678;13.250;2023-08-31T03:56:32;4.23;;;2.60;;
7289;SDS011;63176;52.678;13.250;2023-08-31T03:58:57;4.97;;;2.67;;
7289;SDS011;63176;52.678;13.250;2023-08-31T04:01:23;2.87;;;2.67;;
7289;SDS011;63176;52.678;13.250;2023-08-31T04:03:48;4.50;;;2.90;;
7289;SDS011;63176;52.678;13.250;2023-08-31T04:06:14;3.50;;;3.13;;
7289;SDS011;63176;52.678;13.250;2023-08-31T04:08:40;3.63;;;3.10;;
7289;SDS011;63176;52.678;13.250;2023-08-31T04:11:05;3.90;;;3.50;;
7289;SDS011;63176;52.678;13.250;2023-08-31T04:13:31;3.37;;;3.07;;
7289;SDS011;63176;52.678;13.250;2023-08-31T04:15:56;5.13;;;3.70;;
7289;SDS011;63176;52.678;13.250;2023-08-31T04:18:22;3.43;;;3.13;;
7289;SDS011;63176;52.678;13.250;2023-08-31T04:20:48;3.80;;;3.23;;
7289;SDS011;63176;52.678;13.250;2023-08-31T04:23:16;3.90;;;3.50;;
7289;SDS011;63176;52.678;13.250;2023-08-31T04:25:42;4.57;;;3.60;;
7289;SDS011;63176;52.678;13.250;2023-08-31T04:28:07;4.20;;;3.80;;
7289;SDS011;63176;52.678;13.250;2023-08-31T04:30:33;4.30;;;3.17;;
7289;SDS011;63176;52.678;13.250;2023-08-31T04:32:59;4.07;;;3.67;;
7289;SDS011;63176;52.678;13.250;2023-08-31T04:35:24;5.73;;;3.93;;
7289;SDS011;63176;52.678;13.250;2023-08-31T04:37:50;5.73;;;4.10;;
7289;SDS011;63176;52.678;13.250;2023-08-31T04:40:16;4.73;;;4.20;;
7289;SDS011;63176;52.678;13.250;2023-08-31T04:42:42;7.77;;;3.97;;
7289;SDS011;63176;52.678;13.250;2023-08-31T04:45:08;4.83;;;4.33;;
7289;SDS011;63176;52.678;13.250;2023-08-31T04:47:34;6.30;;;4.50;;
7289;SDS011;63176;52.678;13.250;2023-08-31T04:49:59;6.47;;;4.80;;
7289;SDS011;63176;52.678;13.250;2023-08-31T04:52:25;8.00;;;5.13;;
7289;SDS011;63176;52.678;13.250;2023-08-31T04:54:50;6.83;;;5.50;;
7289;SDS011;63176;52.678;13.250;2023-08-31T04:57:16;6.40;;;5.67;;
7289;SDS011;63176;52.678;13.250;2023-08-31T04:59:42;9.27;;;5.73;;
7289;SDS011;63176;52.678;13.250;2023-08-31T05:02:07;6.30;;;5.03;;
7289;SDS011;63176;52.678;13.250;2023-08-31T05:04:33;6.40;;;5.47;;
7289;SDS011;63176;52.678;13.250;2023-08-31T05:06:58;6.10;;;5.40;;
7289;SDS011;63176;52.678;13.250;2023-08-31T05:09:24;7.00;;;5.80;;
7289;SDS011;63176;52.678;13.250;2023-08-31T05:11:50;8.00;;;6.50;;
7289;SDS011;63176;52.678;13.250;2023-08-31T05:14:16;6.40;;;5.53;;
7289;SDS011;63176;52.678;13.250;2023-08-31T05:16:41;7.27;;;6.53;;
7289;SDS011;63176;52.678;13.250;2023-08-31T05:19:07;9.10;;;6.47;;
7289;SDS011;63176;52.678;13.250;2023-08-31T05:21:33;8.80;;;5.77;;
7289;SDS011;63176;52.678;13.250;2023-08-31T05:23:58;11.30;;;7.23;;
7289;SDS011;63176;52.678;13.250;2023-08-31T05:26:24;11.40;;;6.97;;
7289;SDS011;63176;52.678;13.250;2023-08-31T05:28:50;10.23;;;6.63;;
7289;SDS011;63176;52.678;13.250;2023-08-31T05:31:15;9.00;;;6.57;;
7289;SDS011;63176;52.678;13.250;2023-08-31T05:33:41;9.00;;;5.90;;
7289;SDS011;63176;52.678;13.250;2023-08-31T05:36:06;7.70;;;6.43;;
7289;SDS011;63176;52.678;13.250;2023-08-31T05:38:32;7.37;;;6.50;;
7289;SDS011;63176;52.678;13.250;2023-08-31T05:41:08;8.10;;;6.50;;
7289;SDS011;63176;52.678;13.250;2023-08-31T05:43:34;11.93;;;6.73;;
7289;SDS011;63176;52.678;13.250;2023-08-31T05:46:01;10.90;;;7.43;;
7289;SDS011;63176;52.678;13.250;2023-08-31T05:48:27;10.87;;;7.70;;
7289;SDS011;63176;52.678;13.250;2023-08-31T05:50:54;9.00;;;6.80;;
7289;SDS011;63176;52.678;13.250;2023-08-31T05:53:20;18.37;;;8.70;;
7289;SDS011;63176;52.678;13.250;2023-08-31T05:55:46;8.30;;;7.27;;
7289;SDS011;63176;52.678;13.250;2023-08-31T05:58:12;8.17;;;6.70;;
7289;SDS011;63176;52.678;13.250;2023-08-31T06:00:37;12.43;;;6.60;;
7289;SDS011;63176;52.678;13.250;2023-08-31T06:03:03;11.30;;;7.10;;
7289;SDS011;63176;52.678;13.250;2023-08-31T06:05:30;11.73;;;7.57;;
7289;SDS011;63176;52.678;13.250;2023-08-31T06:07:57;6.87;;;6.13;;
7289;SDS011;63176;52.678;13.250;2023-08-31T06:10:23;9.17;;;6.87;;
7289;SDS011;63176;52.678;13.250;2023-08-31T06:12:52;8.77;;;6.77;;
7289;SDS011;63176;52.678;13.250;2023-08-31T06:15:17;10.83;;;7.13;;
7289;SDS011;63176;52.678;13.250;2023-08-31T06:17:43;10.40;;;7.10;;
7289;SDS011;63176;52.678;13.250;2023-08-31T06:20:09;9.87;;;7.17;;
7289;SDS011;63176;52.678;13.250;2023-08-31T06:22:35;10.40;;;7.50;;
7289;SDS011;63176;52.678;13.250;2023-08-31T06:25:01;10.50;;;7.10;;
7289;SDS011;63176;52.678;13.250;2023-08-31T06:27:29;9.63;;;7.23;;
7289;SDS011;63176;52.678;13.250;2023-08-31T06:29:54;8.80;;;7.10;;
7289;SDS011;63176;52.678;13.250;2023-08-31T06:32:21;11.40;;;7.33;;
7289;SDS011;63176;52.678;13.250;2023-08-31T06:34:47;9.50;;;7.23;;
7289;SDS011;63176;52.678;13.250;2023-08-31T06:37:12;8.90;;;7.00;;
7289;SDS011;63176;52.678;13.250;2023-08-31T06:39:38;9.83;;;6.90;;
7289;SDS011;63176;52.678;13.250;2023-08-31T06:42:04;11.97;;;7.60;;
7289;SDS011;63176;52.678;13.250;2023-08-31T06:44:30;8.20;;;7.10;;
7289;SDS011;63176;52.678;13.250;2023-08-31T06:46:56;9.73;;;8.23;;
7289;SDS011;63176;52.678;13.250;2023-08-31T06:49:22;10.30;;;7.43;;
7289;SDS011;63176;52.678;13.250;2023-08-31T06:51:48;9.40;;;7.03;;
7289;SDS011;63176;52.678;13.250;2023-08-31T06:54:14;6.83;;;6.00;;
7289;SDS011;63176;52.678;13.250;2023-08-31T06:56:39;6.60;;;5.90;;
7289;SDS011;63176;52.678;13.250;2023-08-31T06:59:05;9.70;;;6.53;;
7289;SDS011;63176;52.678;13.250;2023-08-31T07:01:31;5.90;;;5.30;;
7289;SDS011;63176;52.678;13.250;2023-08-31T07:03:57;8.13;;;6.23;;
7289;SDS011;63176;52.678;13.250;2023-08-31T07:06:24;9.47;;;6.23;;
7289;SDS011;63176;52.678;13.250;2023-08-31T07:08:50;7.80;;;5.70;;
7289;SDS011;63176;52.678;13.250;2023-08-31T07:11:16;7.07;;;5.90;;
7289;SDS011;63176;52.678;13.250;2023-08-31T07:13:42;7.27;;;6.00;;
7289;SDS011;63176;52.678;13.250;2023-08-31T07:16:08;10.20;;;4.80;;
7289;SDS011;63176;52.678;13.250;2023-08-31T07:18:34;8.10;;;5.87;;
7289;SDS011;63176;52.678;13.250;2023-08-31T07:21:00;8.93;;;5.47;;
7289;SDS011;63176;52.678;13.250;2023-08-31T07:23:26;5.60;;;5.00;;
7289;SDS011;63176;52.678;13.250;2023-08-31T07:25:52;8.10;;;4.70;;
7289;SDS011;63176;52.678;13.250;2023-08-31T07:28:22;7.17;;;4.70;;
7289;SDS011;63176;52.678;13.250;2023-08-31T07:30:48;5.87;;;4.67;;
7289;SDS011;63176;52.678;13.250;2023-08-31T07:33:13;7.83;;;5.03;;
7289;SDS011;63176;52.678;13.250;2023-08-31T07:35:39;6.07;;;4.73;;
7289;SDS011;63176;52.678;13.250;2023-08-31T07:38:05;6.67;;;4.30;;
7289;SDS011;63176;52.678;13.250;2023-08-31T07:40:31;7.63;;;5.00;;
7289;SDS011;63176;52.678;13.250;2023-08-31T07:42:56;6.40;;;4.40;;
7289;SDS011;63176;52.678;13.250;2023-08-31T07:45:22;10.50;;;4.50;;
7289;SDS011;63176;52.678;13.250;2023-08-31T07:47:48;8.10;;;3.97;;
7289;SDS011;63176;52.678;13.250;2023-08-31T07:50:14;7.43;;;4.93;;
7289;SDS011;63176;52.678;13.250;2023-08-31T07:52:39;9.63;;;4.40;;
7289;SDS011;63176;52.678;13.250;2023-08-31T07:55:05;7.60;;;4.03;;
7289;SDS011;63176;52.678;13.250;2023-08-31T07:57:31;6.90;;;4.90;;
7289;SDS011;63176;52.678;13.250;2023-08-31T07:59:57;8.97;;;4.67;;
7289;SDS011;63176;52.678;13.250;2023-08-31T08:02:22;7.60;;;4.60;;
7289;SDS011;63176;52.678;13.250;2023-08-31T08:04:48;6.73;;;3.83;;
7289;SDS011;63176;52.678;13.250;2023-08-31T08:07:13;5.27;;;4.10;;
7289;SDS011;63176;52.678;13.250;2023-08-31T08:09:39;6.60;;;3.87;;
7289;SDS011;63176;52.678;13.250;2023-08-31T08:12:05;5.80;;;4.03;;
7289;SDS011;63176;52.678;13.250;2023-08-31T08:14:32;5.17;;;3.13;;
7289;SDS011;63176;52.678;13.250;2023-08-31T08:16:58;5.33;;;3.17;;
7289;SDS011;63176;52.678;13.250;2023-08-31T08:19:24;4.47;;;3.20;;
7289;SDS011;63176;52.678;13.250;2023-08-31T08:21:50;6.70;;;3.80;;
7289;SDS011;63176;52.678;13.250;2023-08-31T08:24:16;6.10;;;3.20;;
7289;SDS011;63176;52.678;13.250;2023-08-31T08:26:42;4.20;;;3.27;;
7289;SDS011;63176;52.678;13.250;2023-08-31T08:29:08;3.43;;;2.60;;
7289;SDS011;63176;52.678;13.250;2023-08-31T08:31:34;4.73;;;2.80;;
7289;SDS011;63176;52.678;13.250;2023-08-31T08:34:00;3.50;;;2.57;;
7289;SDS011;63176;52.678;13.250;2023-08-31T08:36:26;2.27;;;2.07;;
7289;SDS011;63176;52.678;13.250;2023-08-31T08:38:52;4.00;;;2.20;;
7289;SDS011;63176;52.678;13.250;2023-08-31T08:41:18;4.33;;;2.47;;
7289;SDS011;63176;52.678;13.250;2023-08-31T08:46:21;3.27;;;1.83;;
7289;SDS011;63176;52.678;13.250;2023-08-31T08:48:47;2.47;;;1.77;;
7289;SDS011;63176;52.678;13.250;2023-08-31T08:51:14;2.10;;;1.70;;
7289;SDS011;63176;52.678;13.250;2023-08-31T08:53:41;2.90;;;2.07;;
7289;SDS011;63176;52.678;13.250;2023-08-31T08:56:08;2.40;;;1.23;;
7289;SDS011;63176;52.678;13.250;2023-08-31T08:58:34;4.50;;;2.03;;
7289;SDS011;63176;52.678;13.250;2023-08-31T09:00:59;3.77;;;1.40;;
7289;SDS011;63176;52.678;13.250;2023-08-31T09:03:26;2.50;;;1.47;;
7289;SDS011;63176;52.678;13.250;2023-08-31T09:05:53;1.83;;;1.37;;
7289;SDS011;63176;52.678;13.250;2023-08-31T09:08:25;13.43;;;2.40;;
7289;SDS011;63176;52.678;13.250;2023-08-31T09:10:52;1.80;;;1.27;;
7289;SDS011;63176;52.678;13.250;2023-08-31T09:13:19;1.97;;;1.40;;
7289;SDS011;63176;52.678;13.250;2023-08-31T09:15:46;2.37;;;1.10;;
7289;SDS011;63176;52.678;13.250;2023-08-31T09:18:13;0.80;;;0.80;;
7289;SDS011;63176;52.678;13.250;2023-08-31T09:20:49;1.93;;;1.00;;
7289;SDS011;63176;52.678;13.250;2023-08-31T09:23:15;6.07;;;1.50;;
7289;SDS011;63176;52.678;13.250;2023-08-31T09:25:45;2.20;;;1.07;;
7289;SDS011;63176;52.678;13.250;2023-08-31T09:28:13;3.07;;;1.13;;
7289;SDS011;63176;52.678;13.250;2023-08-31T09:30:40;3.33;;;1.50;;
7289;SDS011;63176;52.678;13.250;2023-08-31T09:33:06;2.70;;;1.23;;
7289;SDS011;63176;52.678;13.250;2023-08-31T09:35:34;3.87;;;1.00;;
7289;SDS011;63176;52.678;13.250;2023-08-31T09:38:20;1.97;;;0.90;;
7289;SDS011;63176;52.678;13.250;2023-08-31T09:40:46;1.33;;;0.80;;
7289;SDS011;63176;52.678;13.250;2023-08-31T09:43:12;2.23;;;1.10;;
7289;SDS011;63176;52.678;13.250;2023-08-31T09:45:45;2.93;;;0.93;;
7289;SDS011;63176;52.678;13.250;2023-08-31T09:48:11;2.60;;;1.20;;
7289;SDS011;63176;52.678;13.250;2023-08-31T09:50:38;1.80;;;1.00;;
7289;SDS011;63176;52.678;13.250;2023-08-31T09:53:04;3.70;;;1.00;;
7289;SDS011;63176;52.678;13.250;2023-08-31T09:55:33;1.90;;;1.00;;
7289;SDS011;63176;52.678;13.250;2023-08-31T09:58:03;3.33;;;1.10;;
7289;SDS011;63176;52.678;13.250;2023-08-31T10:00:32;1.00;;;0.80;;
7289;SDS011;63176;52.678;13.250;2023-08-31T10:03:00;3.83;;;1.50;;
7289;SDS011;63176;52.678;13.250;2023-08-31T10:05:28;1.83;;;0.80;;
7289;SDS011;63176;52.678;13.250;2023-08-31T10:07:54;3.23;;;1.00;;
7289;SDS011;63176;52.678;13.250;2023-08-31T10:10:20;7.60;;;1.23;;
7289;SDS011;63176;52.678;13.250;2023-08-31T10:12:50;3.87;;;1.20;;
7289;SDS011;63176;52.678;13.250;2023-08-31T10:15:17;1.80;;;1.03;;
7289;SDS011;63176;52.678;13.250;2023-08-31T10:17:44;3.70;;;1.33;;
7289;SDS011;63176;52.678;13.250;2023-08-31T10:20:15;1.63;;;1.03;;
7289;SDS011;63176;52.678;13.250;2023-08-31T10:22:42;1.40;;;1.10;;
7289;SDS011;63176;52.678;13.250;2023-08-31T10:25:08;0.93;;;0.70;;
7289;SDS011;63176;52.678;13.250;2023-08-31T10:27:40;4.63;;;0.90;;
7289;SDS011;63176;52.678;13.250;2023-08-31T10:32:39;2.07;;;1.00;;
7289;SDS011;63176;52.678;13.250;2023-08-31T10:35:05;2.57;;;1.00;;
7289;SDS011;63176;52.678;13.250;2023-08-31T10:37:34;3.60;;;0.70;;
7289;SDS011;63176;52.678;13.250;2023-08-31T10:40:10;2.40;;;1.50;;
7289;SDS011;63176;52.678;13.250;2023-08-31T10:42:45;1.87;;;0.80;;
7289;SDS011;63176;52.678;13.250;2023-08-31T10:45:12;9.70;;;1.73;;
7289;SDS011;63176;52.678;13.250;2023-08-31T10:47:42;5.20;;;1.40;;
7289;SDS011;63176;52.678;13.250;2023-08-31T10:50:21;2.80;;;1.23;;
7289;SDS011;63176;52.678;13.250;2023-08-31T10:52:47;3.10;;;1.10;;
7289;SDS011;63176;52.678;13.250;2023-08-31T10:55:14;16.60;;;2.20;;
7289;SDS011;63176;52.678;13.250;2023-08-31T10:57:40;6.67;;;1.73;;
7289;SDS011;63176;52.678;13.250;2023-08-31T11:00:06;6.67;;;1.67;;
7289;SDS011;63176;52.678;13.250;2023-08-31T11:05:00;1.90;;;1.70;;
7289;SDS011;63176;52.678;13.250;2023-08-31T11:07:29;1.80;;;1.40;;
7289;SDS011;63176;52.678;13.250;2023-08-31T11:10:40;5.20;;;1.60;;
7289;SDS011;63176;52.678;13.250;2023-08-31T11:12:54;1.50;;;0.93;;
7289;SDS011;63176;52.678;13.250;2023-08-31T11:15:22;3.00;;;1.50;;
7289;SDS011;63176;52.678;13.250;2023-08-31T11:17:52;6.77;;;1.77;;
7289;SDS011;63176;52.678;13.250;2023-08-31T11:20:20;4.63;;;1.50;;
7289;SDS011;63176;52.678;13.250;2023-08-31T11:22:47;3.30;;;1.03;;
7289;SDS011;63176;52.678;13.250;2023-08-31T11:25:18;1.93;;;1.30;;
7289;SDS011;63176;52.678;13.250;2023-08-31T11:27:57;3.90;;;1.40;;
7289;SDS011;63176;52.678;13.250;2023-08-31T11:30:28;2.20;;;1.40;;
7289;SDS011;63176;52.678;13.250;2023-08-31T11:32:56;2.20;;;1.70;;
7289;SDS011;63176;52.678;13.250;2023-08-31T11:35:30;1.60;;;1.20;;
7289;SDS011;63176;52.678;13.250;2023-08-31T11:37:58;2.90;;;1.50;;
7289;SDS011;63176;52.678;13.250;2023-08-31T11:40:25;2.50;;;1.47;;
7289;SDS011;63176;52.678;13.250;2023-08-31T11:42:52;2.23;;;1.50;;
7289;SDS011;63176;52.678;13.250;2023-08-31T11:45:18;1.30;;;1.20;;
7289;SDS011;63176;52.678;13.250;2023-08-31T11:47:45;3.87;;;1.60;;
7289;SDS011;63176;52.678;13.250;2023-08-31T11:50:13;2.47;;;1.70;;
7289;SDS011;63176;52.678;13.250;2023-08-31T11:52:40;3.37;;;1.60;;
7289;SDS011;63176;52.678;13.250;2023-08-31T11:55:10;4.70;;;1.50;;
7289;SDS011;63176;52.678;13.250;2023-08-31T11:57:37;2.77;;;1.40;;
7289;SDS011;63176;52.678;13.250;2023-08-31T12:00:02;5.70;;;1.60;;
7289;SDS011;63176;52.678;13.250;2023-08-31T12:02:34;3.17;;;1.50;;
7289;SDS011;63176;52.678;13.250;2023-08-31T12:05:01;2.00;;;1.80;;
7289;SDS011;63176;52.678;13.250;2023-08-31T12:07:26;4.67;;;1.53;;
7289;SDS011;63176;52.678;13.250;2023-08-31T12:09:52;2.90;;;1.83;;
7289;SDS011;63176;52.678;13.250;2023-08-31T12:12:21;2.30;;;1.37;;
7289;SDS011;63176;52.678;13.250;2023-08-31T12:14:52;4.43;;;1.73;;
7289;SDS011;63176;52.678;13.250;2023-08-31T12:17:18;3.00;;;1.63;;
7289;SDS011;63176;52.678;13.250;2023-08-31T12:19:44;2.37;;;1.40;;
7289;SDS011;63176;52.678;13.250;2023-08-31T12:22:09;3.57;;;1.90;;
7289;SDS011;63176;52.678;13.250;2023-08-31T12:24:38;1.70;;;1.30;;
7289;SDS011;63176;52.678;13.250;2023-08-31T12:27:05;2.17;;;1.70;;
7289;SDS011;63176;52.678;13.250;2023-08-31T12:29:31;1.60;;;1.20;;
7289;SDS011;63176;52.678;13.250;2023-08-31T12:31:57;3.03;;;1.13;;
7289;SDS011;63176;52.678;13.250;2023-08-31T12:34:23;5.13;;;1.40;;
7289;SDS011;63176;52.678;13.250;2023-08-31T12:36:48;2.50;;;1.57;;
7289;SDS011;63176;52.678;13.250;2023-08-31T12:39:14;1.60;;;1.07;;
7289;SDS011;63176;52.678;13.250;2023-08-31T12:41:40;2.00;;;1.10;;
7289;SDS011;63176;52.678;13.250;2023-08-31T12:44:07;3.10;;;1.73;;
7289;SDS011;63176;52.678;13.250;2023-08-31T12:46:33;1.43;;;1.20;;
7289;SDS011;63176;52.678;13.250;2023-08-31T12:49:00;2.07;;;1.13;;
7289;SDS011;63176;52.678;13.250;2023-08-31T12:51:27;3.30;;;1.50;;
7289;SDS011;63176;52.678;13.250;2023-08-31T12:56:57;2.20;;;1.40;;
7289;SDS011;63176;52.678;13.250;2023-08-31T12:59:23;2.20;;;1.13;;
7289;SDS011;63176;52.678;13.250;2023-08-31T13:01:48;2.50;;;1.20;;
7289;SDS011;63176;52.678;13.250;2023-08-31T13:04:15;1.53;;;1.17;;
7289;SDS011;63176;52.678;13.250;2023-08-31T13:06:40;2.07;;;1.30;;
7289;SDS011;63176;52.678;13.250;2023-08-31T13:09:06;2.13;;;1.60;;
7289;SDS011;63176;52.678;13.250;2023-08-31T13:11:33;2.20;;;1.40;;
7289;SDS011;63176;52.678;13.250;2023-08-31T13:13:59;2.30;;;1.10;;
7289;SDS011;63176;52.678;13.250;2023-08-31T13:16:25;2.47;;;1.40;;
7289;SDS011;63176;52.678;13.250;2023-08-31T13:18:50;1.80;;;1.00;;
7289;SDS011;63176;52.678;13.250;2023-08-31T13:21:16;2.13;;;1.17;;
7289;SDS011;63176;52.678;13.250;2023-08-31T13:23:42;1.73;;;1.40;;
7289;SDS011;63176;52.678;13.250;2023-08-31T13:26:10;3.80;;;1.43;;
7289;SDS011;63176;52.678;13.250;2023-08-31T13:28:36;2.33;;;1.20;;
7289;SDS011;63176;52.678;13.250;2023-08-31T13:31:01;1.10;;;1.00;;
7289;SDS011;63176;52.678;13.250;2023-08-31T13:33:28;1.60;;;1.10;;
7289;SDS011;63176;52.678;13.250;2023-08-31T13:35:56;1.30;;;0.90;;
7289;SDS011;63176;52.678;13.250;2023-08-31T13:38:23;2.20;;;0.80;;
7289;SDS011;63176;52.678;13.250;2023-08-31T13:40:53;0.80;;;0.70;;
7289;SDS011;63176;52.678;13.250;2023-08-31T13:43:20;0.90;;;0.90;;
7289;SDS011;63176;52.678;13.250;2023-08-31T13:45:47;3.10;;;1.00;;
7289;SDS011;63176;52.678;13.250;2023-08-31T13:48:13;0.97;;;0.77;;
7289;SDS011;63176;52.678;13.250;2023-08-31T13:50:39;1.00;;;1.00;;
7289;SDS011;63176;52.678;13.250;2023-08-31T13:53:04;2.30;;;0.80;;
7289;SDS011;63176;52.678;13.250;2023-08-31T13:55:30;3.63;;;0.90;;
7289;SDS011;63176;52.678;13.250;2023-08-31T13:57:57;1.20;;;1.10;;
7289;SDS011;63176;52.678;13.250;2023-08-31T14:00:31;1.93;;;1.30;;
7289;SDS011;63176;52.678;13.250;2023-08-31T14:02:56;1.63;;;0.97;;
7289;SDS011;63176;52.678;13.250;2023-08-31T14:05:23;1.80;;;1.00;;
7289;SDS011;63176;52.678;13.250;2023-08-31T14:07:49;1.53;;;1.13;;
7289;SDS011;63176;52.678;13.250;2023-08-31T14:10:15;4.67;;;1.30;;
7289;SDS011;63176;52.678;13.250;2023-08-31T14:12:41;1.83;;;1.30;;
7289;SDS011;63176;52.678;13.250;2023-08-31T14:15:06;1.10;;;1.00;;
7289;SDS011;63176;52.678;13.250;2023-08-31T14:17:32;1.07;;;0.90;;
7289;SDS011;63176;52.678;13.250;2023-08-31T14:19:58;1.10;;;0.70;;
7289;SDS011;63176;52.678;13.250;2023-08-31T14:22:25;1.67;;;0.67;;
7289;SDS011;63176;52.678;13.250;2023-08-31T14:24:51;5.70;;;1.27;;
7289;SDS011;63176;52.678;13.250;2023-08-31T14:27:17;4.70;;;1.80;;
7289;SDS011;63176;52.678;13.250;2023-08-31T14:29:42;4.80;;;1.40;;
7289;SDS011;63176;52.678;13.250;2023-08-31T14:32:08;6.00;;;1.40;;
7289;SDS011;63176;52.678;13.250;2023-08-31T14:34:34;6.77;;;1.87;;
7289;SDS011;63176;52.678;13.250;2023-08-31T14:36:59;8.20;;;1.73;;
7289;SDS011;63176;52.678;13.250;2023-08-31T14:39:26;2.10;;;1.90;;
7289;SDS011;63176;52.678;13.250;2023-08-31T14:41:55;3.83;;;2.40;;
7289;SDS011;63176;52.678;13.250;2023-08-31T14:44:24;7.73;;;2.50;;
7289;SDS011;63176;52.678;13.250;2023-08-31T14:46:51;4.87;;;1.77;;
7289;SDS011;63176;52.678;13.250;2023-08-31T14:49:17;1.57;;;1.47;;
7289;SDS011;63176;52.678;13.250;2023-08-31T14:51:42;2.03;;;1.37;;
7289;SDS011;63176;52.678;13.250;2023-08-31T14:54:09;2.10;;;1.30;;
7289;SDS011;63176;52.678;13.250;2023-08-31T14:56:34;3.47;;;1.20;;
7289;SDS011;63176;52.678;13.250;2023-08-31T14:59:00;3.90;;;1.60;;
7289;SDS011;63176;52.678;13.250;2023-08-31T15:01:26;2.47;;;1.40;;
7289;SDS011;63176;52.678;13.250;2023-08-31T15:03:51;1.77;;;1.50;;
7289;SDS011;63176;52.678;13.250;2023-08-31T15:06:17;3.83;;;1.10;;